Post, Texas
Current Conditions -  °F | °C
As of 3:53 PM on Saturday 25 Oct 2014 (Local Time) from KLBB Reporting Station
Clear Clear  
Wind Chill: 84°   Ceiling: Unl
Heat Index: 84°   Visibility: 10mi
Dew Point: 49°   Wind: 10mph
Humidity: 29%   Direction: 180°S
Pressure: 30.12"   Gusts: NA
Location:  33.19°N, 101.38°W
Report Text: KLBB 252053Z 18009KT 10SM CLR 29/09 A3012 RMK AO2 SLP156 T02890094 56022 $
Loading
Personal Weather Stations






























Interactive Weather Map
Tropical Storm Tracking
New forecast layout! Learn more

10-Day Weather Forecast

Advertisements
Track Severe Weather on mobile